Time;durP1;ratioP1;P1;durP2;ratioP2;P2;SDS_P1;SDS_P2;PMS_P1;PMS_P2;Temp;Humidity;BMP_temperature;BMP_pressure;BME280_temperature;BME280_humidity;BME280_pressure;Samples;Min_cycle;Max_cycle;Signal;HPM_P1;HPM_P2
2023/08/04 00:00:45;;;;;;;1.87;1.30;;;21.90;99.90;;;;;;4929248;28;21028;-77
2023/08/04 00:03:13;;;;;;;1.47;1.37;;;21.90;99.90;;;;;;4929436;28;20473;-77
2023/08/04 00:05:40;;;;;;;1.83;1.10;;;21.90;99.90;;;;;;4930438;28;20474;-78
2023/08/04 00:08:07;;;;;;;1.50;1.10;;;21.90;99.90;;;;;;4925883;28;20473;-77
2023/08/04 00:10:35;;;;;;;1.77;1.10;;;21.90;99.90;;;;;;4930549;28;20466;-77
2023/08/04 00:13:02;;;;;;;1.33;1.23;;;21.90;99.90;;;;;;4930897;28;20465;-77
2023/08/04 00:15:29;;;;;;;2.17;1.50;;;21.90;99.90;;;;;;4926159;28;20471;-76
2023/08/04 00:17:57;;;;;;;1.87;1.40;;;21.90;99.90;;;;;;4927338;28;20469;-76
2023/08/04 00:20:23;;;;;;;1.30;1.20;;;21.90;99.90;;;;;;4927625;28;20501;-78
2023/08/04 00:22:50;;;;;;;1.43;1.17;;;21.90;99.90;;;;;;4927667;29;21047;-77
2023/08/04 00:25:17;;;;;;;3.07;1.30;;;21.90;99.90;;;;;;4929057;28;20467;-77
2023/08/04 00:27:45;;;;;;;1.30;1.00;;;21.90;99.90;;;;;;4926687;28;20474;-78
2023/08/04 00:30:12;;;;;;;2.17;1.20;;;21.90;99.90;;;;;;4927139;28;20959;-77
2023/08/04 00:32:39;;;;;;;1.20;1.10;;;21.90;99.90;;;;;;4922814;28;20542;-76
2023/08/04 00:35:06;;;;;;;1.90;1.23;;;21.90;99.90;;;;;;4928709;28;20473;-76
2023/08/04 00:37:34;;;;;;;1.60;1.13;;;21.90;99.90;;;;;;4928682;28;20494;-77
2023/08/04 00:40:01;;;;;;;1.63;1.00;;;21.90;99.90;;;;;;4931540;29;20520;-77
2023/08/04 00:42:27;;;;;;;1.80;1.70;;;21.90;99.90;;;;;;4927812;28;20847;-78
2023/08/04 00:44:55;;;;;;;2.30;1.10;;;21.90;99.90;;;;;;4927563;28;20466;-77
2023/08/04 00:47:24;;;;;;;1.20;1.10;;;21.90;99.90;;;;;;4923897;28;20969;-77
2023/08/04 00:49:52;;;;;;;1.40;1.30;;;21.90;99.90;;;;;;4928275;28;20458;-77
2023/08/04 00:52:19;;;;;;;1.50;1.33;;;21.90;99.90;;;;;;4927653;28;20512;-78
2023/08/04 00:54:47;;;;;;;2.23;1.30;;;21.90;99.90;;;;;;4925710;28;20566;-78
2023/08/04 00:57:14;;;;;;;1.40;1.13;;;21.90;99.90;;;;;;4928340;29;20483;-77
2023/08/04 00:59:40;;;;;;;2.10;1.30;;;21.90;99.90;;;;;;4926713;28;20477;-78
2023/08/04 01:02:09;;;;;;;1.93;1.30;;;21.90;99.90;;;;;;4921579;28;20466;-78
2023/08/04 01:04:36;;;;;;;1.33;1.23;;;21.90;99.90;;;;;;4927545;28;20463;-77
2023/08/04 01:07:18;;;;;;;1.17;1.03;;;21.90;99.90;;;;;;4930272;29;20466;-77
2023/08/04 01:09:51;;;;;;;1.67;1.27;;;21.90;99.90;;;;;;4931779;28;20829;-78
2023/08/04 01:12:23;;;;;;;1.30;1.20;;;21.90;99.90;;;;;;4927022;28;20562;-77
2023/08/04 01:14:53;;;;;;;1.20;1.07;;;21.90;99.90;;;;;;4928926;28;20466;-78
2023/08/04 01:17:26;;;;;;;1.30;1.13;;;21.90;99.90;;;;;;4924817;28;20600;-78
2023/08/04 01:19:53;;;;;;;1.23;1.10;;;21.90;99.90;;;;;;4927466;28;20530;-77
2023/08/04 01:22:21;;;;;;;1.63;1.27;;;21.90;99.90;;;;;;4929073;28;20492;-77
2023/08/04 01:24:48;;;;;;;1.57;1.00;;;21.90;99.90;;;;;;4930499;28;20480;-77
2023/08/04 01:27:19;;;;;;;1.93;1.40;;;21.80;99.90;;;;;;4926825;28;20474;-78
2023/08/04 01:29:47;;;;;;;2.23;1.20;;;21.80;99.90;;;;;;4928161;28;20964;-78
2023/08/04 01:32:14;;;;;;;1.23;1.10;;;21.90;99.90;;;;;;4927822;28;20466;-78
2023/08/04 01:34:44;;;;;;;1.63;1.40;;;21.80;99.90;;;;;;4924823;28;20517;-77
2023/08/04 01:37:11;;;;;;;1.40;1.10;;;21.80;99.90;;;;;;4928705;29;20481;-78
2023/08/04 01:39:39;;;;;;;3.07;1.40;;;21.80;99.90;;;;;;4926864;28;20459;-78
2023/08/04 01:42:06;;;;;;;1.10;1.00;;;21.80;99.90;;;;;;4922648;28;20866;-78
2023/08/04 01:44:33;;;;;;;2.70;1.17;;;21.80;99.90;;;;;;4925552;28;20945;-78
2023/08/04 01:47:00;;;;;;;1.30;1.20;;;21.80;99.90;;;;;;4925693;28;20968;-78
2023/08/04 01:49:27;;;;;;;1.03;0.93;;;21.80;99.90;;;;;;4924960;29;20834;-77
2023/08/04 01:51:54;;;;;;;1.30;1.20;;;21.80;99.90;;;;;;4924242;28;20459;-76
2023/08/04 01:54:20;;;;;;;1.40;1.10;;;21.80;99.90;;;;;;4923667;28;20474;-78
2023/08/04 01:56:48;;;;;;;2.50;1.30;;;21.80;99.90;;;;;;4929350;28;20479;-77
2023/08/04 01:59:15;;;;;;;1.30;1.20;;;21.80;99.90;;;;;;4929565;29;20564;-78
2023/08/04 02:01:42;;;;;;;1.53;1.27;;;21.80;99.90;;;;;;4927917;28;21105;-78
2023/08/04 02:04:09;;;;;;;1.67;1.33;;;21.80;99.90;;;;;;4929694;28;20445;-77
2023/08/04 02:06:36;;;;;;;1.10;1.00;;;21.80;99.90;;;;;;4929806;28;20863;-77
2023/08/04 02:09:03;;;;;;;1.20;1.10;;;21.80;99.90;;;;;;4925759;28;20823;-77
2023/08/04 02:11:30;;;;;;;1.83;1.10;;;21.80;99.90;;;;;;4928792;28;20943;-77
2023/08/04 02:13:58;;;;;;;1.50;1.20;;;21.80;99.90;;;;;;4929400;28;20521;-77
2023/08/04 02:16:25;;;;;;;1.47;1.13;;;21.80;99.90;;;;;;4925579;28;20513;-77
2023/08/04 02:19:04;;;;;;;1.97;1.30;;;21.80;99.90;;;;;;4931040;28;20491;-78
2023/08/04 02:21:30;;;;;;;1.13;1.03;;;21.80;99.90;;;;;;4930390;28;20975;-77
2023/08/04 02:23:57;;;;;;;1.90;1.30;;;21.80;99.90;;;;;;4932312;28;20481;-77
2023/08/04 02:26:24;;;;;;;1.57;1.17;;;21.80;99.90;;;;;;4932060;28;20449;-77
2023/08/04 02:28:52;;;;;;;1.30;1.20;;;21.80;99.90;;;;;;4930222;29;20473;-77
2023/08/04 02:31:22;;;;;;;1.10;0.93;;;21.80;99.90;;;;;;4928076;28;20968;-77
2023/08/04 02:33:48;;;;;;;1.40;1.30;;;21.80;99.90;;;;;;4929383;28;21101;-76
2023/08/04 02:36:17;;;;;;;1.23;1.13;;;21.80;99.90;;;;;;4927861;28;20474;-74
2023/08/04 02:38:44;;;;;;;1.20;1.10;;;21.80;99.90;;;;;;4933745;29;20473;-76
2023/08/04 02:41:11;;;;;;;1.30;1.20;;;21.80;99.90;;;;;;4928656;28;20482;-76
2023/08/04 02:43:38;;;;;;;1.27;1.10;;;21.80;99.90;;;;;;4931491;29;20463;-77
2023/08/04 02:46:05;;;;;;;1.67;1.00;;;21.80;99.90;;;;;;4928668;28;20473;-76
2023/08/04 02:48:34;;;;;;;1.17;1.07;;;21.80;99.90;;;;;;4933679;28;21495;-80
2023/08/04 02:51:04;;;;;;;1.30;1.20;;;21.80;99.90;;;;;;4930429;28;20467;-78
2023/08/04 02:53:33;;;;;;;2.70;1.20;;;21.80;99.90;;;;;;4931672;28;20466;-77
2023/08/04 02:55:59;;;;;;;1.20;1.10;;;21.80;99.90;;;;;;4933396;29;21029;-77
2023/08/04 02:58:29;;;;;;;1.60;1.43;;;21.80;99.90;;;;;;4929816;28;20491;-77
2023/08/04 03:00:55;;;;;;;1.23;1.13;;;21.80;99.90;;;;;;4929678;28;20469;-77
2023/08/04 03:03:22;;;;;;;1.27;1.07;;;21.70;99.90;;;;;;4931195;28;20472;-78
2023/08/04 03:05:50;;;;;;;1.40;1.13;;;21.70;99.90;;;;;;4929248;28;21004;-77
2023/08/04 03:08:17;;;;;;;1.03;0.93;;;21.80;99.90;;;;;;4928689;28;20659;-77
2023/08/04 03:10:44;;;;;;;1.20;1.10;;;21.70;99.90;;;;;;4932858;29;20467;-77
2023/08/04 03:13:10;;;;;;;1.50;1.20;;;21.70;99.90;;;;;;4929790;28;20824;-76
2023/08/04 03:15:37;;;;;;;1.30;1.20;;;21.70;99.90;;;;;;4927863;28;21066;-77
2023/08/04 03:18:04;;;;;;;1.33;1.23;;;21.70;99.90;;;;;;4930926;29;20490;-76
2023/08/04 03:20:38;;;;;;;2.73;1.10;;;21.70;99.90;;;;;;4927191;28;20466;-77
2023/08/04 03:23:07;;;;;;;1.37;1.23;;;21.70;99.90;;;;;;4929964;29;21083;-76
2023/08/04 03:25:34;;;;;;;1.90;1.43;;;21.70;99.90;;;;;;4930000;28;20470;-77
2023/08/04 03:28:01;;;;;;;1.10;1.00;;;21.70;99.90;;;;;;4928379;28;20463;-77
2023/08/04 03:30:28;;;;;;;1.20;1.00;;;21.70;99.90;;;;;;4927666;28;20463;-77
2023/08/04 05:22:20;;;;;;;2.93;1.60;;;21.60;99.90;;;;;;5867755;23;20494;-83
2023/08/04 05:24:48;;;;;;;3.37;1.77;;;21.60;99.90;;;;;;4955830;28;20472;-81
2023/08/04 05:27:15;;;;;;;2.83;1.80;;;21.60;99.90;;;;;;4964649;28;20487;-81
2023/08/04 05:29:42;;;;;;;5.67;1.97;;;21.60;99.90;;;;;;4963871;28;20468;-83
2023/08/04 05:32:09;;;;;;;2.67;1.33;;;21.60;99.90;;;;;;4969167;28;20465;-82
2023/08/04 05:34:35;;;;;;;2.67;1.60;;;21.60;99.90;;;;;;4966301;28;20460;-82
2023/08/04 05:37:02;;;;;;;6.40;2.60;;;21.60;99.90;;;;;;4962717;28;20949;-80
2023/08/04 05:39:32;;;;;;;2.53;1.77;;;21.60;99.90;;;;;;4962011;28;20456;-82
2023/08/04 05:42:01;;;;;;;1.97;1.77;;;21.60;99.90;;;;;;4969652;28;20469;-83
2023/08/04 05:44:28;;;;;;;2.93;1.83;;;21.60;99.90;;;;;;4964462;28;20459;-80
2023/08/04 05:46:55;;;;;;;4.80;2.00;;;21.60;99.90;;;;;;4963043;28;20963;-80
2023/08/04 05:49:23;;;;;;;1.93;1.77;;;21.60;99.90;;;;;;4962843;28;20468;-79
2023/08/04 05:51:50;;;;;;;8.20;2.13;;;21.60;99.90;;;;;;4962408;28;20457;-77
2023/08/04 05:54:17;;;;;;;3.40;2.40;;;21.60;99.90;;;;;;4961339;28;20553;-80
2023/08/04 05:56:44;;;;;;;3.50;2.00;;;21.60;99.90;;;;;;4966001;28;20997;-77
2023/08/04 05:59:12;;;;;;;2.13;1.57;;;21.60;99.90;;;;;;4961252;28;20952;-74
2023/08/04 06:01:38;;;;;;;5.17;3.07;;;21.60;99.90;;;;;;4964265;28;20470;-77
2023/08/04 06:04:05;;;;;;;5.83;2.27;;;21.60;99.90;;;;;;4965536;28;20469;-77
2023/08/04 06:06:32;;;;;;;7.97;2.90;;;21.60;99.90;;;;;;4962420;28;20495;-76
2023/08/04 06:08:59;;;;;;;5.50;3.03;;;21.60;99.90;;;;;;4967604;28;20476;-76
2023/08/04 06:11:26;;;;;;;5.57;3.10;;;21.60;99.90;;;;;;4966791;28;21051;-77
2023/08/04 06:13:54;;;;;;;6.90;3.37;;;21.60;99.90;;;;;;4962964;28;20467;-80
2023/08/04 06:16:22;;;;;;;9.33;3.57;;;21.50;99.90;;;;;;4965498;28;20481;-80
2023/08/04 06:18:49;;;;;;;8.83;3.20;;;21.50;99.90;;;;;;4966388;28;20492;-79
2023/08/04 06:21:15;;;;;;;5.53;3.30;;;21.50;99.90;;;;;;4963381;28;20468;-80
2023/08/04 06:23:45;;;;;;;13.97;3.90;;;21.50;99.90;;;;;;4961578;28;20833;-80
2023/08/04 06:26:12;;;;;;;5.85;3.20;;;21.50;99.90;;;;;;4962959;28;20460;-80
2023/08/04 06:28:40;;;;;;;8.90;3.38;;;21.50;99.90;;;;;;4963727;28;20320;-79
2023/08/04 06:31:07;;;;;;;5.50;2.80;;;21.40;99.90;;;;;;4963862;28;20202;-79
2023/08/04 06:33:35;;;;;;;11.70;3.87;;;21.40;99.90;;;;;;4963845;28;20480;-77
2023/08/04 06:36:02;;;;;;;8.60;3.20;;;21.40;99.90;;;;;;4963354;28;20999;-80
2023/08/04 06:38:28;;;;;;;6.00;3.13;;;21.40;99.90;;;;;;4961679;28;20603;-80
2023/08/04 06:40:55;;;;;;;7.60;2.80;;;21.40;99.90;;;;;;4966807;28;20869;-79
2023/08/04 06:43:22;;;;;;;9.77;3.40;;;21.50;99.90;;;;;;4964966;28;20469;-79
2023/08/04 06:45:49;;;;;;;7.23;3.20;;;21.50;99.90;;;;;;4966437;28;20737;-79
2023/08/04 06:48:15;;;;;;;10.03;3.07;;;21.50;99.90;;;;;;4964039;28;20460;-79
2023/08/04 06:50:43;;;;;;;7.27;3.03;;;21.40;99.90;;;;;;4959505;28;20465;-81
2023/08/04 06:53:10;;;;;;;7.97;3.73;;;21.40;99.90;;;;;;4960837;28;20460;-81
2023/08/04 06:55:37;;;;;;;6.70;3.15;;;21.40;99.90;;;;;;4966299;28;21038;-81
2023/08/04 06:58:04;;;;;;;3.83;2.80;;;21.40;99.90;;;;;;4965303;28;20217;-81
2023/08/04 07:00:31;;;;;;;6.83;2.70;;;21.40;99.90;;;;;;4964909;28;20453;-81
2023/08/04 07:02:57;;;;;;;8.52;2.95;;;21.40;99.90;;;;;;4967309;28;20464;-84
2023/08/04 07:05:24;;;;;;;5.93;2.78;;;21.40;99.90;;;;;;4967256;28;20220;-81
2023/08/04 07:07:54;;;;;;;5.97;3.03;;;21.40;99.90;;;;;;4966467;28;20201;-82
2023/08/04 07:10:21;;;;;;;7.43;4.10;;;21.40;99.90;;;;;;4966830;28;20464;-82
2023/08/04 07:12:48;;;;;;;5.67;3.00;;;21.40;99.90;;;;;;4968689;28;20475;-81
2023/08/04 07:15:15;;;;;;;5.00;2.73;;;21.40;99.90;;;;;;4965948;28;20469;-81
2023/08/04 07:17:41;;;;;;;8.60;3.97;;;21.40;99.90;;;;;;4959381;28;20489;-82
2023/08/04 07:20:09;;;;;;;8.00;3.43;;;21.40;99.90;;;;;;4968123;28;20469;-82
2023/08/04 07:22:37;;;;;;;5.70;2.70;;;21.40;99.90;;;;;;4967724;28;20491;-80
2023/08/04 07:25:06;;;;;;;7.03;3.57;;;21.40;99.90;;;;;;4966797;28;20473;-81
2023/08/04 07:27:33;;;;;;;8.83;2.70;;;21.40;99.90;;;;;;4966717;28;20464;-80
2023/08/04 07:29:59;;;;;;;5.37;2.90;;;21.30;99.90;;;;;;4967776;28;20456;-79
2023/08/04 09:05:59;;;;;;;3.93;2.30;;;21.20;99.90;;;;;;5076561;27;20554;-72
2023/08/04 09:08:26;;;;;;;5.57;2.33;;;21.30;99.90;;;;;;5070959;28;20455;-70
2023/08/04 09:10:52;;;;;;;4.30;2.87;;;21.30;99.90;;;;;;5068775;28;20459;-66
2023/08/04 09:13:20;;;;;;;3.80;2.37;;;21.30;99.90;;;;;;5071830;28;20872;-65
2023/08/04 09:15:48;;;;;;;3.20;2.07;;;21.30;99.90;;;;;;5075415;28;21016;-64
2023/08/04 09:18:25;;;;;;;5.23;2.73;;;21.30;99.90;;;;;;5078874;28;20491;-69
2023/08/04 09:21:00;;;;;;;2.87;1.60;;;21.30;99.90;;;;;;5081464;28;21772;-75
2023/08/04 09:23:30;;;;;;;3.30;1.50;;;21.30;99.90;;;;;;5074600;28;20447;-67
2023/08/04 09:25:57;;;;;;;7.10;2.10;;;21.40;99.90;;;;;;5072588;28;20535;-71
2023/08/04 09:28:23;;;;;;;3.53;1.83;;;21.40;99.90;;;;;;5079981;28;20482;-66
2023/08/04 09:31:04;;;;;;;2.60;1.70;;;21.40;99.90;;;;;;5077282;28;20491;-65
2023/08/04 09:33:31;;;;;;;3.60;2.17;;;21.40;99.90;;;;;;5077751;28;20521;-63
2023/08/04 09:36:08;;;;;;;4.90;1.77;;;21.50;99.90;;;;;;5075865;28;20479;-65
2023/08/04 09:38:36;;;;;;;2.10;1.87;;;21.50;99.90;;;;;;5077603;28;20463;-71
2023/08/04 09:41:04;;;;;;;1.93;1.63;;;21.50;99.90;;;;;;5083598;28;20459;-70
2023/08/04 09:43:31;;;;;;;4.83;2.77;;;21.50;99.90;;;;;;5078904;28;20460;-70
2023/08/04 09:46:00;;;;;;;2.07;1.80;;;21.50;99.90;;;;;;5080975;28;20447;-65
2023/08/04 09:48:27;;;;;;;2.30;1.50;;;21.60;99.90;;;;;;5083408;28;20463;-70
2023/08/04 09:51:07;;;;;;;4.90;2.00;;;21.60;99.90;;;;;;5078433;28;20981;-67
2023/08/04 09:53:36;;;;;;;2.37;1.80;;;21.70;99.90;;;;;;5078069;28;20459;-62
2023/08/04 09:56:03;;;;;;;3.63;2.17;;;21.70;99.90;;;;;;5077110;28;20982;-64
2023/08/04 09:58:31;;;;;;;2.83;1.87;;;21.80;99.90;;;;;;5078803;28;20461;-67
2023/08/04 10:00:58;;;;;;;1.97;1.70;;;21.80;99.90;;;;;;5069723;28;20488;-70
2023/08/04 10:03:25;;;;;;;3.77;2.37;;;21.80;99.90;;;;;;5079831;28;20466;-66
2023/08/04 10:05:55;;;;;;;4.83;2.37;;;21.90;99.90;;;;;;5070385;28;20483;-65
2023/08/04 10:08:23;;;;;;;4.00;2.30;;;21.90;99.90;;;;;;5062432;28;20851;-71
2023/08/04 10:10:51;;;;;;;3.40;1.70;;;22.00;99.90;;;;;;5066007;28;20456;-71
2023/08/04 10:13:20;;;;;;;2.17;1.97;;;22.00;99.90;;;;;;5066377;28;20873;-63
2023/08/04 10:15:48;;;;;;;2.90;2.00;;;22.00;99.90;;;;;;5065482;28;20620;-73
2023/08/04 10:18:14;;;;;;;3.33;1.70;;;22.10;99.90;;;;;;5064319;28;20893;-69
2023/08/04 10:20:41;;;;;;;7.13;2.77;;;22.10;99.90;;;;;;5061803;28;20943;-66
2023/08/04 10:23:08;;;;;;;2.17;1.60;;;22.10;99.90;;;;;;5063687;28;20994;-73
2023/08/04 10:25:36;;;;;;;2.43;1.73;;;22.20;99.90;;;;;;5068566;28;20503;-65
2023/08/04 10:28:04;;;;;;;4.50;2.53;;;22.20;99.90;;;;;;5064397;28;21154;-65
2023/08/04 10:30:31;;;;;;;2.47;1.80;;;22.20;99.90;;;;;;5064599;28;20465;-67
2023/08/04 10:33:10;;;;;;;2.57;1.77;;;22.20;99.90;;;;;;5069012;28;20468;-64
2023/08/04 10:36:09;;;;;;;3.03;1.90;;;22.20;99.90;;;;;;5067666;28;20546;-59
2023/08/04 10:38:46;;;;;;;3.07;1.50;;;22.20;99.90;;;;;;5065036;28;20490;-59
2023/08/04 10:41:14;;;;;;;2.00;1.67;;;22.20;99.90;;;;;;5063769;28;20456;-65
2023/08/04 10:43:41;;;;;;;2.93;1.93;;;22.30;99.90;;;;;;5064905;28;20832;-65
2023/08/04 10:46:11;;;;;;;3.40;2.20;;;22.30;99.90;;;;;;5062735;28;20452;-63
2023/08/04 10:48:40;;;;;;;3.80;2.07;;;22.30;99.90;;;;;;5060691;28;20457;-72
2023/08/04 10:51:08;;;;;;;2.47;1.90;;;22.40;99.90;;;;;;5059643;28;20462;-69
2023/08/04 10:53:35;;;;;;;3.67;1.93;;;22.30;99.90;;;;;;5063132;28;20541;-65
2023/08/04 10:56:07;;;;;;;2.70;2.17;;;22.40;99.90;;;;;;5065572;28;20456;-63
2023/08/04 10:58:36;;;;;;;2.77;1.73;;;22.40;99.90;;;;;;5063888;28;20466;-76
2023/08/04 11:01:03;;;;;;;2.13;1.80;;;22.40;99.90;;;;;;5058290;28;20964;-65
2023/08/04 11:03:33;;;;;;;4.57;2.10;;;22.40;99.90;;;;;;5063209;28;20456;-65
2023/08/04 11:06:00;;;;;;;2.50;1.73;;;22.50;99.90;;;;;;5062928;28;20517;-64
2023/08/04 11:08:27;;;;;;;1.87;1.53;;;22.50;99.90;;;;;;5059268;28;20580;-68
2023/08/04 11:10:56;;;;;;;4.13;1.93;;;22.50;99.90;;;;;;5059310;28;20461;-67
2023/08/04 11:13:24;;;;;;;2.00;1.80;;;22.50;99.90;;;;;;5059018;28;20461;-65
2023/08/04 11:15:54;;;;;;;4.20;2.07;;;22.50;99.90;;;;;;5059006;28;20975;-66
2023/08/04 11:18:23;;;;;;;4.17;2.57;;;22.50;99.90;;;;;;5058653;28;21016;-69
2023/08/04 11:20:50;;;;;;;4.70;2.57;;;22.50;99.90;;;;;;5060259;28;20656;-68
2023/08/04 11:23:25;;;;;;;4.23;2.70;;;22.50;99.90;;;;;;5059022;28;20461;-68
2023/08/04 11:25:51;;;;;;;4.37;1.90;;;22.50;99.90;;;;;;5056127;28;20996;-69
2023/08/04 11:28:20;;;;;;;2.97;1.60;;;22.50;99.90;;;;;;5060848;28;20462;-71
2023/08/04 11:30:47;;;;;;;2.30;1.50;;;22.50;99.90;;;;;;5059627;28;20462;-71
2023/08/04 11:33:16;;;;;;;4.10;1.40;;;22.50;99.90;;;;;;5062819;28;20462;-67
2023/08/04 11:35:44;;;;;;;6.50;2.47;;;22.40;99.90;;;;;;5060733;28;20555;-67
2023/08/04 11:38:11;;;;;;;6.63;1.50;;;22.40;99.90;;;;;;5060152;28;20803;-67
2023/08/04 11:40:53;;;;;;;4.80;2.30;;;22.40;99.90;;;;;;5065401;28;20472;-67
2023/08/04 11:43:21;;;;;;;3.13;1.50;;;22.40;99.90;;;;;;5062095;28;20471;-68
2023/08/04 11:45:49;;;;;;;2.60;1.53;;;22.40;99.90;;;;;;5060922;28;20483;-67
2023/08/04 11:48:17;;;;;;;4.10;1.50;;;22.40;99.90;;;;;;5061523;28;20896;-68
2023/08/04 11:50:44;;;;;;;9.10;1.60;;;22.40;99.90;;;;;;5065759;28;20479;-67
2023/08/04 11:53:15;;;;;;;2.83;1.77;;;22.40;99.90;;;;;;5064000;28;20457;-67
2023/08/04 11:55:54;;;;;;;3.50;1.73;;;22.40;99.90;;;;;;5063421;28;20582;-66
2023/08/04 11:58:30;;;;;;;3.53;1.90;;;22.40;99.90;;;;;;5064984;28;20572;-68
2023/08/04 12:00:57;;;;;;;7.10;1.70;;;22.40;99.90;;;;;;5058993;28;20810;-68
2023/08/04 12:03:25;;;;;;;2.13;1.67;;;22.40;99.90;;;;;;5060605;28;20459;-66
2023/08/04 12:05:54;;;;;;;1.73;1.40;;;22.40;99.90;;;;;;5062296;28;20488;-68
2023/08/04 12:08:21;;;;;;;2.20;1.50;;;22.40;99.90;;;;;;5063782;28;20990;-68
2023/08/04 12:11:00;;;;;;;1.97;1.30;;;22.40;99.90;;;;;;5068205;28;20474;-67
2023/08/04 12:13:33;;;;;;;3.10;1.97;;;22.40;99.90;;;;;;5065770;28;20551;-67
2023/08/04 12:16:00;;;;;;;2.03;1.40;;;22.40;99.90;;;;;;5062074;28;20552;-67
2023/08/04 12:18:29;;;;;;;3.10;1.27;;;22.40;99.90;;;;;;5060871;28;20964;-66
2023/08/04 12:20:57;;;;;;;2.50;1.60;;;22.40;99.90;;;;;;5063559;28;20817;-69
2023/08/04 12:23:24;;;;;;;2.40;1.60;;;22.40;99.90;;;;;;5058601;28;20492;-65
2023/08/04 12:25:51;;;;;;;2.00;1.50;;;22.40;99.90;;;;;;5059455;28;20554;-68
2023/08/04 12:28:17;;;;;;;5.80;1.50;;;22.40;99.90;;;;;;5055165;28;20461;-64
2023/08/04 12:30:44;;;;;;;2.23;1.67;;;22.40;99.90;;;;;;5058747;28;20871;-65
2023/08/04 12:33:11;;;;;;;3.70;1.70;;;22.40;99.90;;;;;;5059203;28;20456;-67
2023/08/04 12:35:39;;;;;;;2.80;1.37;;;22.40;99.90;;;;;;5059899;28;20644;-67
2023/08/04 12:38:06;;;;;;;1.93;1.67;;;22.40;99.90;;;;;;5055804;28;20559;-68
2023/08/04 12:40:33;;;;;;;1.70;1.60;;;22.30;99.90;;;;;;5057247;28;20467;-67
2023/08/04 12:43:01;;;;;;;1.40;1.20;;;22.30;99.90;;;;;;5061087;28;20937;-68
2023/08/04 12:45:27;;;;;;;2.43;1.43;;;22.30;99.90;;;;;;5059091;28;20481;-67
2023/08/04 12:47:54;;;;;;;3.30;1.83;;;22.30;99.90;;;;;;5059428;28;20890;-66
2023/08/04 12:50:21;;;;;;;2.90;1.87;;;22.30;99.90;;;;;;5056630;28;20476;-64
2023/08/04 12:52:49;;;;;;;2.97;1.97;;;22.30;99.90;;;;;;5057708;28;20452;-69
2023/08/04 12:55:16;;;;;;;3.90;1.70;;;22.30;99.90;;;;;;5058406;28;20478;-69
2023/08/04 12:57:42;;;;;;;2.00;1.80;;;22.30;99.90;;;;;;5059919;28;20480;-66
2023/08/04 13:00:10;;;;;;;2.73;1.63;;;22.30;99.90;;;;;;5058205;28;20890;-66
2023/08/04 13:02:37;;;;;;;1.73;1.30;;;22.30;99.90;;;;;;5064925;28;20955;-68
2023/08/04 13:05:04;;;;;;;6.13;1.93;;;22.30;99.90;;;;;;5061201;28;20479;-68
2023/08/04 13:07:30;;;;;;;3.33;1.60;;;22.30;99.90;;;;;;5060116;28;21054;-66
2023/08/04 13:09:58;;;;;;;2.80;1.43;;;22.30;99.90;;;;;;5058861;28;20857;-67
2023/08/04 13:12:25;;;;;;;2.80;1.63;;;22.30;99.90;;;;;;5062335;28;20470;-67
2023/08/04 13:14:52;;;;;;;2.90;1.70;;;22.30;99.90;;;;;;5059912;28;21106;-66
2023/08/04 13:17:18;;;;;;;1.63;1.53;;;22.30;99.90;;;;;;5057433;28;21010;-68
2023/08/04 13:19:46;;;;;;;1.87;1.50;;;22.30;99.90;;;;;;5058802;28;20455;-68
2023/08/04 13:22:13;;;;;;;3.10;1.93;;;22.30;99.90;;;;;;5060078;28;20548;-70
2023/08/04 13:24:40;;;;;;;2.17;1.57;;;22.20;99.90;;;;;;5061005;28;20463;-64
2023/08/04 13:27:08;;;;;;;2.40;1.77;;;22.30;99.90;;;;;;5060981;28;20459;-71
2023/08/04 13:29:35;;;;;;;1.50;1.40;;;22.30;99.90;;;;;;5062180;28;20464;-71
2023/08/04 13:32:03;;;;;;;5.33;2.00;;;22.30;99.90;;;;;;5058837;28;20460;-70
2023/08/04 13:34:29;;;;;;;2.80;1.87;;;22.20;99.90;;;;;;5059317;28;20468;-71
2023/08/04 13:36:56;;;;;;;1.70;1.60;;;22.20;99.90;;;;;;5057937;28;20460;-70
2023/08/04 13:39:24;;;;;;;2.43;1.60;;;22.20;99.90;;;;;;5057444;28;20499;-71
2023/08/04 13:41:50;;;;;;;2.73;1.70;;;22.20;99.90;;;;;;5060629;28;20455;-71
2023/08/04 13:44:18;;;;;;;2.93;2.03;;;22.20;99.90;;;;;;5065827;28;20464;-70
2023/08/04 13:46:45;;;;;;;2.73;1.60;;;22.20;99.90;;;;;;5063617;28;20486;-68
2023/08/04 13:49:12;;;;;;;2.90;1.50;;;22.20;99.90;;;;;;5066834;28;20467;-69
2023/08/04 13:51:38;;;;;;;1.70;1.50;;;22.20;99.90;;;;;;5069288;28;20971;-66
2023/08/04 13:54:05;;;;;;;3.27;1.30;;;22.20;99.90;;;;;;5062447;28;20947;-70
2023/08/04 13:56:33;;;;;;;2.20;1.70;;;22.20;99.90;;;;;;5062638;28;20471;-68
2023/08/04 13:59:00;;;;;;;2.70;1.70;;;22.20;99.90;;;;;;5064193;28;20847;-69
2023/08/04 14:01:29;;;;;;;4.10;1.60;;;22.20;99.90;;;;;;5057323;28;20601;-64
2023/08/04 14:03:56;;;;;;;3.27;1.20;;;22.20;99.90;;;;;;5063760;28;20471;-63
2023/08/04 14:06:23;;;;;;;2.27;1.60;;;22.20;99.90;;;;;;5059543;28;20973;-70
2023/08/04 14:08:50;;;;;;;2.07;1.40;;;22.20;99.90;;;;;;5061108;28;20469;-68
2023/08/04 14:11:17;;;;;;;1.90;1.30;;;22.20;99.90;;;;;;5063117;28;20463;-72
2023/08/04 14:13:45;;;;;;;3.00;1.40;;;22.20;99.90;;;;;;5055378;28;20467;-71
2023/08/04 14:16:12;;;;;;;1.50;1.40;;;22.20;99.90;;;;;;5062127;28;20478;-67
2023/08/04 14:18:41;;;;;;;4.30;1.37;;;22.20;99.90;;;;;;5062554;28;20574;-68
2023/08/04 14:21:08;;;;;;;4.20;1.70;;;22.20;99.90;;;;;;5063499;28;20464;-67
2023/08/04 14:23:35;;;;;;;1.70;1.37;;;22.20;99.90;;;;;;5060942;28;20460;-66
2023/08/04 14:26:02;;;;;;;2.33;1.70;;;22.20;99.90;;;;;;5061552;28;21013;-64
2023/08/04 14:28:28;;;;;;;1.60;1.50;;;22.20;99.90;;;;;;5061906;28;20475;-65
2023/08/04 14:30:55;;;;;;;2.17;1.93;;;22.20;99.90;;;;;;5066963;28;20468;-63
2023/08/04 14:33:22;;;;;;;2.07;1.67;;;22.20;99.90;;;;;;5066967;28;20955;-62
2023/08/04 14:35:51;;;;;;;1.50;1.40;;;22.30;99.90;;;;;;5065433;28;20456;-64
2023/08/04 14:38:18;;;;;;;1.40;1.20;;;22.30;99.90;;;;;;5064670;28;20469;-64
2023/08/04 14:40:45;;;;;;;1.90;1.30;;;22.30;99.90;;;;;;5064520;28;20958;-68
2023/08/04 14:43:11;;;;;;;1.83;1.60;;;22.30;99.90;;;;;;5070616;28;20436;-62
2023/08/04 14:45:38;;;;;;;1.80;1.37;;;22.30;99.90;;;;;;5070325;28;20518;-62
2023/08/04 14:48:05;;;;;;;1.40;1.30;;;22.40;99.90;;;;;;5067067;28;20473;-65
2023/08/04 14:50:32;;;;;;;1.53;1.43;;;22.40;99.90;;;;;;5071579;28;20478;-66
2023/08/04 14:53:00;;;;;;;2.00;1.53;;;22.40;99.90;;;;;;5070393;28;20516;-64
2023/08/04 14:55:26;;;;;;;1.43;1.33;;;22.40;99.90;;;;;;5070409;28;20476;-65
2023/08/04 14:57:54;;;;;;;2.30;1.80;;;22.50;99.90;;;;;;5069732;28;20490;-71
2023/08/04 15:00:20;;;;;;;1.77;1.50;;;22.50;99.90;;;;;;5069516;28;20469;-66
2023/08/04 15:02:47;;;;;;;1.50;1.40;;;22.50;99.90;;;;;;5069951;28;20460;-65
2023/08/04 15:05:14;;;;;;;1.57;1.47;;;22.50;99.90;;;;;;5070995;28;20471;-70
2023/08/04 15:07:42;;;;;;;2.07;1.60;;;22.50;99.90;;;;;;5069983;28;20448;-70
2023/08/04 15:10:10;;;;;;;1.60;1.40;;;22.60;99.90;;;;;;5062167;28;20483;-70
2023/08/04 15:12:37;;;;;;;1.80;1.57;;;22.60;99.90;;;;;;5064495;28;20460;-69
2023/08/04 15:15:05;;;;;;;2.23;1.27;;;22.60;99.90;;;;;;5063824;28;20865;-67
2023/08/04 15:17:32;;;;;;;1.97;1.37;;;22.60;99.90;;;;;;5066454;28;21005;-76
2023/08/04 15:19:59;;;;;;;3.00;1.40;;;22.60;99.90;;;;;;5064781;28;20878;-68
2023/08/04 15:22:26;;;;;;;1.53;1.43;;;22.60;99.90;;;;;;5066097;28;20477;-68
2023/08/04 15:24:53;;;;;;;5.30;1.60;;;22.60;99.90;;;;;;5062393;28;20817;-69
2023/08/04 15:27:21;;;;;;;1.30;1.20;;;22.60;99.90;;;;;;5065784;28;20512;-66
2023/08/04 15:29:47;;;;;;;1.53;1.43;;;22.70;99.90;;;;;;5063420;28;21039;-68
2023/08/04 15:32:14;;;;;;;1.67;1.57;;;22.70;99.90;;;;;;5063101;28;20885;-69
2023/08/04 15:34:42;;;;;;;1.53;1.40;;;22.70;99.90;;;;;;5061439;28;20990;-64
2023/08/04 15:37:09;;;;;;;1.20;1.10;;;22.70;99.90;;;;;;5063224;28;20460;-65
2023/08/04 15:39:36;;;;;;;1.77;1.67;;;22.70;99.90;;;;;;5060029;28;20465;-63
2023/08/04 15:42:03;;;;;;;2.20;1.13;;;22.70;99.90;;;;;;5061227;28;20487;-67
2023/08/04 15:44:32;;;;;;;1.30;1.20;;;22.70;99.90;;;;;;5064002;28;20566;-74
2023/08/04 15:46:59;;;;;;;1.53;1.30;;;22.70;99.90;;;;;;5059991;28;20489;-71
2023/08/04 15:49:25;;;;;;;2.30;1.13;;;22.70;99.90;;;;;;5063117;28;20468;-71
2023/08/04 15:51:52;;;;;;;1.50;1.40;;;22.80;99.90;;;;;;5062699;28;20824;-69
2023/08/04 15:54:19;;;;;;;2.13;1.50;;;22.80;99.90;;;;;;5063848;28;20930;-69
2023/08/04 15:56:46;;;;;;;1.20;1.10;;;22.80;99.90;;;;;;5066214;28;20493;-65
2023/08/04 15:59:12;;;;;;;1.40;1.17;;;22.80;99.90;;;;;;5059560;28;20507;-73
2023/08/04 16:01:40;;;;;;;1.50;1.30;;;22.80;99.90;;;;;;5061101;28;20476;-66
2023/08/04 16:04:07;;;;;;;2.70;1.13;;;22.80;99.90;;;;;;5066910;28;20923;-63
2023/08/04 16:06:34;;;;;;;2.57;1.27;;;22.80;99.90;;;;;;5063825;28;20931;-70
2023/08/04 16:09:00;;;;;;;1.53;1.37;;;22.80;99.90;;;;;;5063021;28;22240;-69
2023/08/04 16:11:28;;;;;;;3.20;1.60;;;22.80;99.90;;;;;;5061775;28;20461;-63